Time;durP1;ratioP1;P1;durP2;ratioP2;P2;SDS_P1;SDS_P2;PMS_P1;PMS_P2;Temp;Humidity;BMP_temperature;BMP_pressure;BME280_temperature;BME280_humidity;BME280_pressure;Samples;Min_cycle;Max_cycle;Signal;HPM_P1;HPM_P2
2021/09/25 00:00:06;;;;;;;5.68;4.72;;;11.90;99.90;;;;;;4993817;28;20251;-68
2021/09/25 00:02:31;;;;;;;5.63;5.07;;;11.90;99.90;;;;;;4993734;28;20666;-66
2021/09/25 00:04:57;;;;;;;5.03;4.27;;;11.90;99.90;;;;;;4993971;28;20199;-67
2021/09/25 00:07:23;;;;;;;6.00;5.30;;;11.90;99.90;;;;;;4965914;28;20180;-67
2021/09/25 00:09:49;;;;;;;6.50;5.00;;;11.80;99.90;;;;;;4974337;28;20200;-66
2021/09/25 00:12:15;;;;;;;5.60;5.10;;;11.80;99.90;;;;;;4957141;28;20259;-66
2021/09/25 00:14:42;;;;;;;6.88;5.55;;;11.70;99.90;;;;;;4974430;28;20416;-68
2021/09/25 00:17:10;;;;;;;9.45;6.05;;;11.70;99.90;;;;;;4956887;28;20183;-68
2021/09/25 00:19:37;;;;;;;6.90;6.25;;;11.70;99.90;;;;;;4974421;28;20286;-68
2021/09/25 00:22:03;;;;;;;6.82;5.85;;;11.70;99.90;;;;;;4975155;28;20176;-67
2021/09/25 00:24:29;;;;;;;6.93;5.33;;;11.70;99.90;;;;;;4956837;28;20232;-68
2021/09/25 00:26:54;;;;;;;5.67;4.73;;;11.60;99.90;;;;;;4974066;28;20412;-67
2021/09/25 00:29:20;;;;;;;6.07;4.93;;;11.60;99.90;;;;;;4974193;28;20732;-67
2021/09/25 00:31:46;;;;;;;6.00;5.40;;;11.60;99.90;;;;;;4974192;28;20177;-67
2021/09/25 00:34:12;;;;;;;6.00;5.40;;;11.60;99.90;;;;;;4975286;28;20898;-67
2021/09/25 00:36:38;;;;;;;8.48;6.28;;;11.60;99.90;;;;;;4993234;28;20562;-68
2021/09/25 00:39:04;;;;;;;6.60;5.83;;;11.50;99.90;;;;;;4993768;28;20249;-67
2021/09/25 00:41:30;;;;;;;6.47;5.90;;;11.50;99.90;;;;;;4993194;28;20410;-67
2021/09/25 00:43:56;;;;;;;7.67;6.57;;;11.50;99.90;;;;;;4993617;28;20649;-67
2021/09/25 00:46:22;;;;;;;6.43;5.23;;;11.50;99.90;;;;;;4993387;28;20207;-67
2021/09/25 00:48:49;;;;;;;6.03;4.82;;;11.40;99.90;;;;;;4992928;28;20191;-67
2021/09/25 00:51:15;;;;;;;5.25;4.57;;;11.50;99.90;;;;;;4993302;28;20214;-67
2021/09/25 00:53:43;;;;;;;6.15;5.60;;;11.50;99.90;;;;;;4993428;28;20503;-67
2021/09/25 00:56:09;;;;;;;6.68;5.30;;;11.50;99.90;;;;;;4987213;28;20199;-67
2021/09/25 00:58:36;;;;;;;6.28;4.75;;;11.40;99.90;;;;;;4973366;28;20662;-68
2021/09/25 01:01:02;;;;;;;6.47;4.95;;;11.40;99.90;;;;;;4973851;28;20179;-68
2021/09/25 01:03:28;;;;;;;7.20;5.80;;;11.40;99.90;;;;;;4975464;28;20606;-68
2021/09/25 01:05:54;;;;;;;11.90;6.40;;;11.40;99.90;;;;;;4977687;28;20462;-68
2021/09/25 01:08:22;;;;;;;8.33;5.17;;;11.30;99.90;;;;;;4977206;28;20175;-68
2021/09/25 01:10:49;;;;;;;7.18;5.53;;;11.30;99.90;;;;;;4978324;28;20670;-69
2021/09/25 01:13:15;;;;;;;5.97;5.35;;;11.30;99.90;;;;;;4977517;28;20164;-67
2021/09/25 01:15:41;;;;;;;8.02;5.82;;;11.30;99.90;;;;;;4982040;28;20203;-67
2021/09/25 01:18:07;;;;;;;7.60;5.87;;;11.30;99.90;;;;;;4996297;28;20298;-67
2021/09/25 01:20:33;;;;;;;7.90;6.13;;;11.30;99.90;;;;;;4996550;28;20608;-67
2021/09/25 01:22:58;;;;;;;6.73;5.43;;;11.30;99.90;;;;;;4996786;28;20270;-67
2021/09/25 01:25:24;;;;;;;7.63;6.13;;;11.30;99.90;;;;;;4996700;28;20206;-68
2021/09/25 01:27:51;;;;;;;7.07;6.40;;;11.20;99.90;;;;;;4996223;28;20530;-68
2021/09/25 01:30:17;;;;;;;11.85;6.53;;;11.30;99.90;;;;;;4992623;28;20192;-67
2021/09/25 01:32:45;;;;;;;6.45;4.30;;;11.30;99.90;;;;;;4977199;28;20180;-67
2021/09/25 01:35:11;;;;;;;6.20;5.50;;;11.30;99.90;;;;;;4977100;28;20169;-68
2021/09/25 01:37:37;;;;;;;6.05;4.97;;;11.30;99.90;;;;;;4959209;28;20267;-68
2021/09/25 01:40:04;;;;;;;8.03;6.13;;;11.30;99.90;;;;;;4976876;28;20767;-68
2021/09/25 01:42:30;;;;;;;5.35;4.68;;;11.30;99.90;;;;;;4977275;28;20439;-69
2021/09/25 01:44:56;;;;;;;6.33;5.70;;;11.30;99.90;;;;;;4991352;28;20234;-68
2021/09/25 01:47:21;;;;;;;5.63;5.10;;;11.30;99.90;;;;;;4995823;28;20175;-67
2021/09/25 01:49:48;;;;;;;6.67;6.03;;;11.30;99.90;;;;;;4996008;28;20693;-67
2021/09/25 01:52:15;;;;;;;5.55;5.05;;;11.20;99.90;;;;;;4996282;28;20171;-68
2021/09/25 01:54:41;;;;;;;5.78;5.13;;;11.20;99.90;;;;;;4996188;28;20225;-66
2021/09/25 01:57:06;;;;;;;5.80;5.20;;;11.10;99.90;;;;;;4995744;28;20570;-67
2021/09/25 01:59:32;;;;;;;6.37;5.67;;;11.10;99.90;;;;;;4994303;28;20420;-66
2021/09/25 02:01:58;;;;;;;7.77;5.10;;;11.10;99.90;;;;;;4996008;28;20175;-67
2021/09/25 02:04:23;;;;;;;6.40;5.07;;;11.00;99.90;;;;;;4982008;28;20218;-67
2021/09/25 02:06:49;;;;;;;6.07;5.00;;;11.00;99.90;;;;;;4976198;28;20172;-67
2021/09/25 02:09:15;;;;;;;6.90;5.20;;;11.00;99.90;;;;;;4976447;28;20768;-67
2021/09/25 02:11:40;;;;;;;7.40;5.70;;;11.00;99.90;;;;;;4976626;28;20168;-67
2021/09/25 02:14:06;;;;;;;8.20;5.60;;;11.00;99.90;;;;;;4975993;28;20171;-67
2021/09/25 02:16:32;;;;;;;6.70;6.03;;;11.00;99.90;;;;;;4975586;28;20176;-67
2021/09/25 02:18:57;;;;;;;7.00;6.30;;;11.00;99.90;;;;;;4986940;28;20205;-67
2021/09/25 02:21:23;;;;;;;8.83;6.13;;;11.10;99.90;;;;;;4995669;28;20263;-67
2021/09/25 02:23:49;;;;;;;7.53;6.00;;;11.10;99.90;;;;;;4978300;28;20635;-66
2021/09/25 02:26:14;;;;;;;5.80;5.30;;;11.10;99.90;;;;;;4995429;28;20231;-67
2021/09/25 02:28:40;;;;;;;5.93;4.97;;;11.00;99.90;;;;;;4995145;28;20434;-67
2021/09/25 02:31:06;;;;;;;6.87;5.10;;;11.00;99.90;;;;;;4990935;28;20204;-67
2021/09/25 02:33:32;;;;;;;7.10;5.23;;;11.00;99.90;;;;;;4976052;28;20173;-66
2021/09/25 02:35:58;;;;;;;9.13;5.50;;;11.00;99.90;;;;;;4975991;28;20928;-66
2021/09/25 02:38:24;;;;;;;7.90;5.57;;;11.00;99.90;;;;;;4975436;28;20408;-67
2021/09/25 02:40:49;;;;;;;5.53;4.95;;;11.00;99.90;;;;;;4975767;28;20176;-67
2021/09/25 02:43:15;;;;;;;6.37;5.77;;;11.00;99.90;;;;;;4976301;28;20306;-66
2021/09/25 02:45:41;;;;;;;6.80;5.90;;;11.00;99.90;;;;;;4978315;28;20211;-67
2021/09/25 02:48:06;;;;;;;5.57;5.07;;;10.90;99.90;;;;;;4994821;28;20168;-68
2021/09/25 02:50:32;;;;;;;5.80;4.70;;;10.90;99.90;;;;;;4994849;28;20774;-67
2021/09/25 02:52:58;;;;;;;6.27;4.70;;;10.90;99.90;;;;;;4995147;28;20187;-68
2021/09/25 02:55:23;;;;;;;6.17;3.93;;;10.90;99.90;;;;;;4975832;28;20192;-66
2021/09/25 02:57:49;;;;;;;4.87;4.37;;;10.90;99.90;;;;;;4957824;28;20179;-67
2021/09/25 03:00:20;;;;;;;6.23;5.60;;;10.90;99.90;;;;;;4975482;28;20192;-67
2021/09/25 03:02:46;;;;;;;7.95;5.68;;;10.90;99.90;;;;;;4975428;28;20175;-67
2021/09/25 03:05:11;;;;;;;6.10;4.80;;;11.00;99.90;;;;;;4958064;28;20778;-67
2021/09/25 03:07:37;;;;;;;5.93;5.33;;;10.90;99.90;;;;;;4975023;28;20518;-66
2021/09/25 03:10:05;;;;;;;7.03;5.43;;;10.90;99.90;;;;;;4975198;28;20749;-67
2021/09/25 03:12:31;;;;;;;8.20;6.18;;;10.90;99.90;;;;;;4975260;28;20196;-67
2021/09/25 03:14:56;;;;;;;6.33;5.00;;;10.90;99.90;;;;;;4975305;28;20227;-67
2021/09/25 03:17:22;;;;;;;6.03;4.57;;;10.80;99.90;;;;;;4974916;28;20519;-67
2021/09/25 03:19:47;;;;;;;6.43;5.70;;;10.80;99.90;;;;;;4975129;28;20710;-68
2021/09/25 03:22:17;;;;;;;6.80;5.13;;;10.80;99.90;;;;;;4984224;28;20685;-67
2021/09/25 03:24:43;;;;;;;9.13;5.20;;;10.80;99.90;;;;;;4994360;28;20532;-67
2021/09/25 03:27:09;;;;;;;7.65;6.07;;;10.80;99.90;;;;;;4994146;28;20177;-66
2021/09/25 03:29:35;;;;;;;9.30;5.97;;;10.80;99.90;;;;;;4994345;28;20187;-67
2021/09/25 03:32:01;;;;;;;5.70;4.53;;;10.80;99.90;;;;;;4994173;28;20172;-66
2021/09/25 03:34:26;;;;;;;5.93;5.10;;;10.70;99.90;;;;;;4977111;28;20175;-67
2021/09/25 03:36:52;;;;;;;6.50;5.80;;;10.80;99.90;;;;;;4994043;28;20240;-67
2021/09/25 03:39:17;;;;;;;5.73;5.00;;;10.80;99.90;;;;;;4994285;28;20670;-70
2021/09/25 03:41:43;;;;;;;6.73;4.77;;;10.70;99.90;;;;;;4994607;28;20176;-66
2021/09/25 03:44:09;;;;;;;4.83;4.30;;;10.60;99.90;;;;;;4994223;28;20172;-66
2021/09/25 03:46:35;;;;;;;6.65;5.47;;;10.60;99.90;;;;;;4993143;28;20454;-68
2021/09/25 03:49:04;;;;;;;8.80;6.03;;;10.50;99.90;;;;;;4993862;28;20191;-69
2021/09/25 03:51:30;;;;;;;5.72;5.15;;;10.40;99.90;;;;;;4976798;28;20242;-67
2021/09/25 03:53:56;;;;;;;6.27;5.10;;;10.40;99.90;;;;;;4994125;28;20646;-68
2021/09/25 03:56:21;;;;;;;8.10;5.77;;;10.40;99.90;;;;;;4994214;28;20418;-67
2021/09/25 03:58:47;;;;;;;6.33;4.73;;;10.30;99.90;;;;;;4985928;28;20844;-66
2021/09/25 04:01:15;;;;;;;7.07;4.15;;;10.30;99.90;;;;;;4974748;28;20411;-66
2021/09/25 04:03:41;;;;;;;6.05;5.47;;;10.30;99.90;;;;;;4974740;28;20172;-67
2021/09/25 04:06:07;;;;;;;6.93;5.20;;;10.30;99.90;;;;;;4974464;28;20721;-67
2021/09/25 04:08:33;;;;;;;5.10;4.53;;;10.30;99.90;;;;;;4956802;28;20176;-66
2021/09/25 04:11:02;;;;;;;5.57;4.97;;;10.30;99.90;;;;;;4974750;28;20205;-67
2021/09/25 04:13:30;;;;;;;5.35;4.63;;;10.20;99.90;;;;;;4946830;28;20270;-68
2021/09/25 04:15:56;;;;;;;6.53;4.93;;;10.20;99.90;;;;;;4993981;28;20218;-67
2021/09/25 04:18:21;;;;;;;5.13;4.63;;;10.20;99.90;;;;;;4975933;28;20183;-67
2021/09/25 04:20:47;;;;;;;6.33;4.77;;;10.20;99.90;;;;;;4993892;28;20211;-67
2021/09/25 04:23:13;;;;;;;4.43;4.03;;;10.20;99.90;;;;;;4993847;28;20242;-68
2021/09/25 04:25:38;;;;;;;6.27;4.70;;;10.20;99.90;;;;;;4993906;28;20195;-66
2021/09/25 04:28:07;;;;;;;7.50;4.90;;;10.20;99.90;;;;;;4990995;28;20646;-67
2021/09/25 04:30:34;;;;;;;5.72;4.68;;;10.20;99.90;;;;;;4983307;28;20196;-68
2021/09/25 04:33:01;;;;;;;5.10;4.60;;;10.20;99.90;;;;;;4974410;28;20221;-66
2021/09/25 04:35:32;;;;;;;4.43;4.00;;;10.20;99.90;;;;;;4974370;28;20183;-66
2021/09/25 04:37:59;;;;;;;6.18;4.55;;;10.20;99.90;;;;;;4974914;28;20176;-68
2021/09/25 04:40:31;;;;;;;11.90;5.15;;;10.20;99.90;;;;;;4960716;28;20238;-66
2021/09/25 04:42:58;;;;;;;7.43;5.00;;;10.10;99.90;;;;;;4984128;28;20178;-67
2021/09/25 04:45:23;;;;;;;7.20;4.55;;;10.10;99.90;;;;;;4997085;28;20280;-66
2021/09/25 04:47:50;;;;;;;9.10;6.37;;;10.00;99.90;;;;;;4997091;28;20250;-67
2021/09/25 04:50:18;;;;;;;6.82;4.93;;;10.00;99.90;;;;;;4997172;28;20225;-67
2021/09/25 04:52:43;;;;;;;4.90;4.40;;;10.00;99.90;;;;;;4997337;28;20164;-67
2021/09/25 04:55:25;;;;;;;5.67;5.17;;;9.90;99.90;;;;;;4997240;28;20178;-67
2021/09/25 04:57:53;;;;;;;4.82;4.32;;;9.90;99.90;;;;;;4962058;28;20390;-66
2021/09/25 05:00:22;;;;;;;5.97;4.95;;;9.90;99.90;;;;;;4977849;28;20188;-69
2021/09/25 05:02:47;;;;;;;4.82;4.38;;;9.90;99.90;;;;;;4978291;28;20164;-68
2021/09/25 05:05:13;;;;;;;6.10;5.50;;;9.90;99.90;;;;;;4977635;28;20200;-67
2021/09/25 05:07:39;;;;;;;7.70;5.00;;;9.90;99.90;;;;;;4977340;28;20172;-66
2021/09/25 05:10:04;;;;;;;7.40;5.17;;;9.90;99.90;;;;;;4977583;28;20235;-67
2021/09/25 05:12:30;;;;;;;5.80;4.83;;;9.90;99.90;;;;;;4980171;28;20183;-66
2021/09/25 05:14:56;;;;;;;4.57;4.07;;;9.90;99.90;;;;;;4996500;28;20387;-67
2021/09/25 05:17:21;;;;;;;5.00;4.60;;;9.90;99.90;;;;;;4995115;28;20202;-68
2021/09/25 05:19:48;;;;;;;5.20;4.50;;;9.90;99.90;;;;;;4996624;28;20222;-67
2021/09/25 05:22:14;;;;;;;6.22;4.93;;;9.90;99.90;;;;;;4979337;28;20180;-66
2021/09/25 05:24:44;;;;;;;6.10;5.03;;;9.90;99.90;;;;;;4996690;28;20194;-66
2021/09/25 05:27:13;;;;;;;7.03;4.97;;;9.90;99.90;;;;;;4996518;28;20174;-68
2021/09/25 05:29:40;;;;;;;6.38;4.65;;;9.90;99.90;;;;;;4996770;28;20183;-67
2021/09/25 05:32:10;;;;;;;5.60;5.10;;;9.90;99.90;;;;;;4978443;28;20168;-65
2021/09/25 05:34:36;;;;;;;4.90;4.40;;;10.00;99.90;;;;;;4996418;28;20168;-67
2021/09/25 05:37:04;;;;;;;7.03;6.32;;;10.00;99.90;;;;;;4996200;28;20168;-66
2021/09/25 05:39:30;;;;;;;6.03;5.50;;;10.00;99.90;;;;;;4996436;28;20206;-67
2021/09/25 05:41:56;;;;;;;7.45;5.80;;;10.10;99.90;;;;;;4996350;28;20199;-67
2021/09/25 05:44:22;;;;;;;8.25;6.57;;;10.20;99.90;;;;;;4984357;28;20180;-66
2021/09/25 05:46:48;;;;;;;6.67;5.10;;;10.30;99.90;;;;;;4959276;28;20180;-68
2021/09/25 05:49:14;;;;;;;8.93;5.43;;;10.30;99.90;;;;;;4975866;28;20662;-69
2021/09/25 05:51:39;;;;;;;9.17;6.53;;;10.40;99.90;;;;;;4976619;28;20211;-67
2021/09/25 05:54:05;;;;;;;8.00;6.50;;;10.40;99.90;;;;;;4977032;28;20408;-66
2021/09/25 05:56:31;;;;;;;11.60;6.87;;;10.50;99.90;;;;;;4976609;28;20183;-66
2021/09/25 05:58:57;;;;;;;6.07;5.53;;;10.60;99.90;;;;;;4958613;28;20227;-67
2021/09/25 06:01:22;;;;;;;23.83;7.03;;;10.70;99.90;;;;;;4976558;28;20206;-67
2021/09/25 06:03:48;;;;;;;8.20;6.13;;;10.90;99.90;;;;;;4976625;28;20223;-68
2021/09/25 06:06:14;;;;;;;8.57;7.07;;;11.20;99.90;;;;;;4959237;28;20667;-68
2021/09/25 06:08:40;;;;;;;8.00;6.57;;;11.60;99.90;;;;;;4958842;28;20200;-68
2021/09/25 06:11:05;;;;;;;8.70;6.60;;;12.10;99.90;;;;;;4976607;28;20181;-67
2021/09/25 06:13:31;;;;;;;7.63;5.90;;;12.50;99.90;;;;;;4977347;28;20505;-67
2021/09/25 06:16:00;;;;;;;5.00;4.50;;;12.60;99.90;;;;;;4976524;28;20217;-67
2021/09/25 06:18:25;;;;;;;5.17;4.67;;;12.90;99.90;;;;;;4975980;28;20224;-67
2021/09/25 06:20:51;;;;;;;4.60;4.20;;;13.00;99.90;;;;;;4959010;28;20397;-69
2021/09/25 06:23:17;;;;;;;8.40;5.43;;;13.10;99.90;;;;;;4976438;28;20178;-69
2021/09/25 06:25:43;;;;;;;6.67;5.33;;;13.10;99.90;;;;;;4976265;28;20202;-69
2021/09/25 06:28:09;;;;;;;4.70;4.30;;;13.10;99.90;;;;;;4975748;28;20948;-68
2021/09/25 06:30:44;;;;;;;8.10;4.77;;;13.20;99.90;;;;;;4958386;28;20194;-68
2021/09/25 06:33:11;;;;;;;6.43;4.67;;;13.40;99.90;;;;;;4976023;28;20777;-69
2021/09/25 06:35:37;;;;;;;3.83;3.47;;;13.40;99.90;;;;;;4976092;28;20432;-71
2021/09/25 06:38:03;;;;;;;3.57;3.20;;;13.40;99.90;;;;;;4975935;28;20890;-65
2021/09/25 06:40:29;;;;;;;3.73;3.47;;;13.40;99.90;;;;;;4995218;28;20839;-68
2021/09/25 06:42:55;;;;;;;5.17;4.17;;;13.30;99.90;;;;;;4995276;28;20423;-68
2021/09/25 06:45:21;;;;;;;5.10;4.60;;;13.30;99.90;;;;;;4988976;28;20467;-70
2021/09/25 06:47:47;;;;;;;5.03;4.53;;;13.40;99.90;;;;;;4994903;28;20178;-68
2021/09/25 06:50:13;;;;;;;7.57;4.20;;;13.50;99.90;;;;;;4995119;28;20451;-74
2021/09/25 06:52:38;;;;;;;4.50;4.10;;;13.70;99.90;;;;;;4995371;28;20785;-71
2021/09/25 06:55:08;;;;;;;4.60;3.87;;;13.90;99.90;;;;;;4977700;28;20193;-72
2021/09/25 06:57:34;;;;;;;5.73;5.13;;;14.10;99.90;;;;;;4994740;28;20589;-72
2021/09/25 07:00:00;;;;;;;6.50;4.33;;;14.50;99.90;;;;;;4985837;28;20485;-71
2021/09/25 07:02:25;;;;;;;5.37;4.87;;;14.90;99.90;;;;;;4975191;28;20176;-72
2021/09/25 07:04:51;;;;;;;6.57;4.60;;;15.40;99.90;;;;;;4975486;28;20208;-71
2021/09/25 07:07:17;;;;;;;5.00;3.90;;;16.00;99.90;;;;;;4975107;28;20187;-71
2021/09/25 07:09:43;;;;;;;4.93;3.80;;;16.70;99.90;;;;;;4958117;28;20663;-73
2021/09/25 07:12:09;;;;;;;3.93;3.63;;;17.50;99.90;;;;;;4975386;28;20394;-73
2021/09/25 07:14:35;;;;;;;3.80;3.50;;;18.20;99.90;;;;;;4976250;28;20243;-78
2021/09/25 07:17:01;;;;;;;4.10;3.17;;;18.70;99.90;;;;;;4976857;28;20416;-75
2021/09/25 07:19:26;;;;;;;4.00;3.60;;;19.10;99.90;;;;;;4976462;28;20482;-74
2021/09/25 07:21:52;;;;;;;4.20;3.80;;;19.00;99.90;;;;;;4958008;28;20189;-72
2021/09/25 07:24:18;;;;;;;5.80;4.27;;;18.70;99.90;;;;;;4974929;28;20173;-72
2021/09/25 07:26:43;;;;;;;4.03;3.70;;;18.50;99.90;;;;;;4989445;28;20737;-73
2021/09/25 07:29:09;;;;;;;4.77;4.10;;;18.30;99.90;;;;;;4994303;28;20221;-79
2021/09/25 07:31:35;;;;;;;9.90;3.47;;;18.40;99.90;;;;;;4994387;28;20255;-75
2021/09/25 07:34:01;;;;;;;6.40;4.23;;;18.70;99.90;;;;;;4994369;28;20219;-75
2021/09/25 07:36:27;;;;;;;5.93;5.00;;;19.40;99.90;;;;;;4993674;28;20258;-72
2021/09/25 07:38:54;;;;;;;4.23;3.87;;;20.30;99.90;;;;;;4993792;28;20406;-76
2021/09/25 07:41:20;;;;;;;4.53;3.20;;;21.30;99.90;;;;;;4994345;28;20377;-76
2021/09/25 07:43:46;;;;;;;5.30;3.27;;;22.20;99.30;;;;;;4994281;28;20406;-73
2021/09/25 07:46:12;;;;;;;4.70;4.30;;;23.10;96.90;;;;;;4994048;28;20460;-72
2021/09/25 07:48:37;;;;;;;3.87;3.57;;;23.70;95.50;;;;;;4993758;28;20190;-74
2021/09/25 07:51:03;;;;;;;5.70;3.70;;;24.20;94.80;;;;;;4993574;28;20191;-73
2021/09/25 07:53:29;;;;;;;5.13;4.63;;;24.80;94.10;;;;;;4994165;28;20634;-75
2021/09/25 07:55:54;;;;;;;4.40;4.00;;;25.70;92.80;;;;;;4994291;28;20658;-76
2021/09/25 07:58:20;;;;;;;4.03;3.67;;;26.20;90.60;;;;;;4993556;28;20230;-75
2021/09/25 08:00:47;;;;;;;4.10;3.70;;;26.60;89.00;;;;;;4994027;28;20179;-73
2021/09/25 08:03:12;;;;;;;4.60;4.23;;;27.00;88.70;;;;;;4973297;28;20283;-75
2021/09/25 08:05:38;;;;;;;4.77;4.37;;;27.50;86.10;;;;;;4974506;28;20563;-74
2021/09/25 08:08:04;;;;;;;3.93;3.63;;;27.80;84.00;;;;;;4974128;28;20644;-76
2021/09/25 08:10:30;;;;;;;4.60;3.93;;;27.70;82.80;;;;;;4974195;28;20683;-74
2021/09/25 08:12:56;;;;;;;4.30;3.90;;;27.60;83.00;;;;;;4973706;28;20422;-73
2021/09/25 08:15:21;;;;;;;3.50;3.20;;;28.00;82.50;;;;;;4974496;28;20483;-75
2021/09/25 08:17:47;;;;;;;4.50;4.10;;;28.50;81.60;;;;;;4975015;28;20230;-74
2021/09/25 08:20:15;;;;;;;3.03;2.80;;;29.10;78.90;;;;;;4954851;28;20189;-74
2021/09/25 08:22:43;;;;;;;3.77;3.33;;;29.70;76.00;;;;;;4954957;29;20192;-75
2021/09/25 08:25:13;;;;;;;3.83;3.53;;;30.00;73.40;;;;;;4959756;28;20470;-74
2021/09/25 08:27:39;;;;;;;4.17;3.87;;;30.30;73.80;;;;;;4993411;28;20412;-73
2021/09/25 08:30:07;;;;;;;4.50;4.10;;;30.60;72.20;;;;;;4993605;28;20844;-74
2021/09/25 08:32:33;;;;;;;5.50;5.00;;;30.80;72.40;;;;;;4993777;28;20462;-75
2021/09/25 08:34:59;;;;;;;4.50;4.10;;;31.20;71.00;;;;;;4993701;28;20422;-75
2021/09/25 08:37:24;;;;;;;4.00;3.70;;;31.40;69.40;;;;;;4993178;28;20433;-75
2021/09/25 08:39:50;;;;;;;4.20;3.90;;;31.50;68.90;;;;;;4990723;28;20694;-74
2021/09/25 08:42:18;;;;;;;4.00;3.70;;;31.50;68.80;;;;;;4974326;28;20584;-75
2021/09/25 08:44:48;;;;;;;8.33;3.97;;;31.50;67.20;;;;;;4974463;28;20513;-74
2021/09/25 08:47:16;;;;;;;3.77;3.47;;;31.60;67.00;;;;;;4973818;28;20408;-76
2021/09/25 08:49:42;;;;;;;3.97;3.60;;;31.90;66.60;;;;;;4973751;28;20452;-76
2021/09/25 08:52:08;;;;;;;4.10;3.80;;;32.00;65.90;;;;;;4974079;28;20416;-74
2021/09/25 08:54:34;;;;;;;4.40;3.47;;;32.10;65.30;;;;;;4989081;28;20175;-73
2021/09/25 08:57:05;;;;;;;4.43;4.03;;;32.20;65.40;;;;;;4993291;28;20813;-74
2021/09/25 08:59:31;;;;;;;3.50;3.30;;;32.10;63.20;;;;;;4993450;28;20188;-73
2021/09/25 09:02:11;;;;;;;4.00;3.70;;;31.70;65.60;;;;;;4993534;28;20811;-74
2021/09/25 09:04:49;;;;;;;3.77;3.47;;;31.70;65.50;;;;;;4975987;28;20171;-76
2021/09/25 09:07:28;;;;;;;4.23;3.90;;;31.90;65.70;;;;;;4993020;28;20418;-75
2021/09/25 09:09:56;;;;;;;3.90;3.70;;;32.30;64.10;;;;;;4954583;28;20463;-76
2021/09/25 09:12:27;;;;;;;4.10;3.80;;;32.60;63.40;;;;;;4954708;29;20500;-73
2021/09/25 09:14:54;;;;;;;4.53;4.13;;;32.70;61.90;;;;;;4954751;29;20418;-76
2021/09/25 09:17:30;;;;;;;3.97;3.67;;;32.60;62.60;;;;;;4991952;28;20484;-74
2021/09/25 09:20:10;;;;;;;4.80;4.40;;;32.70;62.00;;;;;;4993447;28;20430;-74
2021/09/25 09:22:35;;;;;;;3.20;2.90;;;32.70;62.40;;;;;;4993550;28;20407;-76
2021/09/25 09:25:06;;;;;;;3.20;3.00;;;32.80;62.00;;;;;;4995511;28;20863;-76
2021/09/25 09:27:32;;;;;;;3.87;3.57;;;32.90;62.10;;;;;;4996738;28;20171;-77
2021/09/25 09:30:11;;;;;;;2.87;2.67;;;33.20;61.60;;;;;;4996455;28;20561;-75
2021/09/25 09:32:45;;;;;;;3.70;3.37;;;33.60;61.50;;;;;;4996753;28;20903;-74
2021/09/25 09:35:20;;;;;;;3.23;3.03;;;33.60;59.70;;;;;;4996945;28;20434;-76
2021/09/25 09:37:46;;;;;;;3.50;3.30;;;33.90;59.10;;;;;;4996293;28;20406;-74
2021/09/25 09:40:14;;;;;;;2.97;2.77;;;34.10;58.90;;;;;;4979039;28;20952;-75
2021/09/25 09:42:48;;;;;;;3.60;3.30;;;34.00;57.90;;;;;;4978912;28;20430;-77
2021/09/25 09:45:31;;;;;;;6.43;4.03;;;33.80;58.40;;;;;;4977319;28;20463;-74
2021/09/25 09:47:59;;;;;;;3.43;3.20;;;34.10;58.40;;;;;;4976924;28;20972;-76
2021/09/25 09:50:29;;;;;;;3.50;3.30;;;34.00;58.30;;;;;;4976810;28;20451;-73
2021/09/25 09:52:54;;;;;;;2.90;2.70;;;33.90;59.30;;;;;;4976889;28;20463;-77
2021/09/25 09:55:24;;;;;;;5.93;4.03;;;33.50;58.10;;;;;;4977096;28;20933;-75
2021/09/25 09:58:00;;;;;;;5.80;3.80;;;33.30;59.10;;;;;;4977110;28;20296;-76
2021/09/25 10:00:26;;;;;;;3.40;3.10;;;33.30;59.30;;;;;;4977432;28;20926;-74
2021/09/25 10:02:53;;;;;;;4.60;4.20;;;33.30;58.70;;;;;;4976663;28;20411;-74
2021/09/25 10:05:18;;;;;;;3.90;3.50;;;33.40;58.30;;;;;;4976472;28;20443;-74
2021/09/25 10:07:44;;;;;;;3.57;3.30;;;33.40;58.70;;;;;;4975822;28;20419;-74
2021/09/25 10:10:10;;;;;;;4.20;3.60;;;33.40;58.40;;;;;;4976323;28;20188;-75
2021/09/25 10:12:37;;;;;;;3.33;3.10;;;33.10;59.00;;;;;;4977942;28;20404;-75
2021/09/25 10:15:04;;;;;;;4.07;3.77;;;33.00;58.80;;;;;;4995775;28;20238;-74
2021/09/25 10:17:30;;;;;;;4.10;3.77;;;33.10;57.30;;;;;;4995374;28;20905;-74
2021/09/25 10:19:56;;;;;;;3.00;2.80;;;33.30;57.30;;;;;;4995645;28;20430;-74
2021/09/25 10:22:26;;;;;;;3.40;3.10;;;33.30;57.90;;;;;;4995695;28;20203;-74
2021/09/25 10:24:58;;;;;;;3.17;2.93;;;33.40;58.10;;;;;;4995596;28;20813;-74
2021/09/25 10:27:36;;;;;;;2.80;2.63;;;33.30;58.60;;;;;;4977534;28;20822;-75
2021/09/25 10:30:05;;;;;;;2.80;2.60;;;32.90;58.10;;;;;;4994118;28;20430;-75
2021/09/25 10:32:35;;;;;;;3.50;3.30;;;32.80;58.40;;;;;;4976071;28;20404;-76
2021/09/25 10:35:09;;;;;;;3.50;3.23;;;33.00;58.60;;;;;;4976174;28;20467;-74
2021/09/25 10:37:38;;;;;;;3.60;3.30;;;32.90;58.80;;;;;;4975219;28;20469;-75
2021/09/25 10:40:05;;;;;;;3.60;3.40;;;32.30;58.60;;;;;;4975711;28;20511;-73
2021/09/25 10:42:39;;;;;;;3.87;2.93;;;32.30;59.00;;;;;;4958654;28;20415;-77
2021/09/25 10:45:12;;;;;;;3.60;3.30;;;32.40;59.30;;;;;;4975684;28;20447;-76
2021/09/25 10:47:38;;;;;;;3.77;3.47;;;32.60;59.30;;;;;;4975416;28;20412;-74
2021/09/25 10:50:12;;;;;;;3.30;3.00;;;32.60;59.00;;;;;;4975517;28;20447;-76
2021/09/25 10:53:04;;;;;;;3.37;3.07;;;32.30;58.90;;;;;;4975739;28;20554;-75
2021/09/25 10:55:30;;;;;;;3.43;3.23;;;32.10;59.40;;;;;;4975720;28;20483;-75
2021/09/25 10:58:24;;;;;;;4.43;3.80;;;31.90;60.00;;;;;;4975635;28;20545;-75
2021/09/25 11:00:53;;;;;;;4.83;4.07;;;31.80;60.30;;;;;;4995063;28;20889;-75
2021/09/25 11:03:46;;;;;;;3.83;3.53;;;31.60;61.20;;;;;;4994881;28;20407;-77
2021/09/25 11:06:28;;;;;;;3.50;3.20;;;31.00;62.40;;;;;;4995001;28;20969;-73
2021/09/25 11:09:07;;;;;;;3.70;3.40;;;29.80;65.00;;;;;;4994382;28;20462;-75
2021/09/25 11:11:49;;;;;;;4.13;3.77;;;29.00;67.90;;;;;;4994963;28;20377;-73
2021/09/25 11:14:29;;;;;;;4.00;3.70;;;28.30;69.20;;;;;;4993332;28;20430;-76
2021/09/25 11:16:56;;;;;;;4.30;3.90;;;27.60;70.40;;;;;;4994438;28;20464;-75
2021/09/25 11:19:22;;;;;;;3.40;3.10;;;27.00;72.30;;;;;;4994659;28;20430;-73
2021/09/25 11:22:06;;;;;;;3.27;2.97;;;26.60;74.50;;;;;;4994671;28;20401;-73
2021/09/25 11:24:48;;;;;;;3.03;2.83;;;26.20;75.90;;;;;;4994767;28;20264;-76
2021/09/25 11:27:19;;;;;;;3.63;3.33;;;25.80;77.20;;;;;;4994426;28;20439;-76
2021/09/25 11:29:59;;;;;;;3.93;3.63;;;25.50;78.50;;;;;;4975693;28;20427;-74
2021/09/25 11:32:27;;;;;;;3.70;3.20;;;25.30;82.90;;;;;;4974916;28;20370;-75
2021/09/25 11:34:53;;;;;;;3.50;3.17;;;25.20;83.00;;;;;;4974925;28;20462;-75
2021/09/25 11:37:20;;;;;;;4.50;3.47;;;25.20;82.10;;;;;;4974543;28;20461;-73
2021/09/25 11:39:49;;;;;;;7.67;3.13;;;25.10;80.80;;;;;;4974771;28;20932;-74
2021/09/25 11:42:18;;;;;;;3.17;2.87;;;25.10;81.20;;;;;;4993417;28;20841;-74
2021/09/25 11:45:08;;;;;;;3.43;3.13;;;25.00;82.20;;;;;;4994146;28;20402;-73
2021/09/25 11:47:37;;;;;;;3.63;3.23;;;25.10;83.20;;;;;;4975429;28;20956;-75
2021/09/25 11:50:14;;;;;;;3.37;3.07;;;25.20;84.30;;;;;;4993772;28;20423;-74
2021/09/25 11:52:41;;;;;;;3.03;2.73;;;25.20;83.40;;;;;;4994153;28;20456;-72
2021/09/25 11:55:08;;;;;;;4.67;3.10;;;25.30;83.30;;;;;;4990424;28;20401;-74
2021/09/25 11:57:34;;;;;;;3.23;3.00;;;25.40;83.00;;;;;;4974331;28;20549;-75
2021/09/25 12:00:01;;;;;;;4.30;3.27;;;25.50;83.20;;;;;;4974563;28;20502;-74
2021/09/25 12:02:38;;;;;;;3.43;2.90;;;25.60;83.40;;;;;;4974833;28;20378;-75
2021/09/25 12:05:10;;;;;;;3.40;3.10;;;25.50;82.00;;;;;;4974569;28;20465;-72
2021/09/25 12:07:40;;;;;;;3.93;3.53;;;25.50;81.60;;;;;;4974359;28;20478;-72
2021/09/25 12:10:06;;;;;;;3.20;2.60;;;25.40;81.40;;;;;;4992353;28;20410;-74
2021/09/25 12:12:33;;;;;;;5.97;4.73;;;25.40;81.80;;;;;;4976398;28;20858;-73
2021/09/25 12:14:59;;;;;;;2.80;2.60;;;25.40;83.20;;;;;;4993947;28;20411;-73
2021/09/25 12:17:28;;;;;;;3.20;2.60;;;25.30;82.20;;;;;;4990198;28;20826;-74
2021/09/25 12:19:53;;;;;;;3.00;2.70;;;25.30;82.10;;;;;;4974348;28;20235;-76
2021/09/25 12:22:21;;;;;;;4.50;3.10;;;25.30;82.30;;;;;;4974301;28;20836;-74
2021/09/25 12:24:47;;;;;;;3.20;2.90;;;25.20;82.10;;;;;;4974315;28;20173;-72
2021/09/25 12:27:25;;;;;;;3.20;2.50;;;25.10;82.10;;;;;;4974185;28;20382;-74
2021/09/25 12:29:51;;;;;;;3.57;2.97;;;25.20;84.90;;;;;;4956599;28;20413;-72
2021/09/25 12:32:20;;;;;;;2.40;2.20;;;25.30;85.70;;;;;;4958153;28;20742;-75
2021/09/25 12:34:50;;;;;;;3.07;2.77;;;25.30;82.60;;;;;;4974821;28;20243;-75
2021/09/25 12:37:16;;;;;;;3.20;2.90;;;25.30;80.60;;;;;;4957679;28;20727;-73
2021/09/25 12:39:44;;;;;;;3.00;2.80;;;25.30;81.40;;;;;;4975001;28;20398;-73
2021/09/25 12:42:22;;;;;;;3.40;3.10;;;25.30;79.90;;;;;;4974551;28;20404;-73
2021/09/25 12:44:53;;;;;;;2.90;2.70;;;25.20;80.40;;;;;;4974232;28;20400;-74
2021/09/25 12:47:29;;;;;;;3.63;3.33;;;25.10;80.60;;;;;;4973756;28;20412;-77
2021/09/25 12:50:17;;;;;;;3.00;2.80;;;25.20;81.00;;;;;;4973989;28;20429;-74